Saint-Simon-De-Rimouski, Canada
Current Conditions -  °F | °C
As of 11:00 PM on Wednesday 26 Nov 2014 (Local Time) from CYYY Reporting Station
Overcast Overcast  
Wind Chill: -9°   Ceiling: 3500
Heat Index: -3°   Visibility: 30mi
Dew Point: -9°   Wind: 14mph
Humidity: 64%   Direction: 10°N
Pressure: 30.16"   Gusts: NA
Location:  48.2°N, 69.02°W
Report Text: CYYY 270400Z 01012KT 30SM OVC035 M03/M09 A3016 RMK SC8 SLP215
Loading
Personal Weather Stations






























Interactive Weather Map New forecast layout! Learn more

10-Day Weather Forecast

Advertisements
Track Severe Weather on mobile